Time;durP1;ratioP1;P1;durP2;ratioP2;P2;SDS_P1;SDS_P2;PMS_P1;PMS_P2;Temp;Humidity;BMP_temperature;BMP_pressure;BME280_temperature;BME280_humidity;BME280_pressure;Samples;Min_cycle;Max_cycle;Signal;HPM_P1;HPM_P2
2023/08/06 00:01:26;;;;;;;16.38;3.55;;;10.10;99.90;;;;;;5046692;28;20049;-55
2023/08/06 00:03:54;;;;;;;8.05;3.80;;;10.00;99.90;;;;;;5048201;28;20432;-56
2023/08/06 00:06:22;;;;;;;6.68;3.72;;;;;;;;;;5044586;28;20052;-55
2023/08/06 00:08:50;;;;;;;10.23;3.35;;;10.00;99.90;;;;;;5045604;28;20053;-56
2023/08/06 00:11:21;;;;;;;7.55;3.40;;;10.00;99.90;;;;;;5047459;28;20041;-56
2023/08/06 00:13:49;;;;;;;8.85;3.35;;;9.90;99.90;;;;;;5049420;28;20037;-54
2023/08/06 00:16:16;;;;;;;8.95;4.25;;;9.90;99.90;;;;;;5047552;28;20033;-54
2023/08/06 00:18:44;;;;;;;7.40;3.28;;;9.90;99.90;;;;;;5046756;28;20036;-56
2023/08/06 00:21:12;;;;;;;13.25;4.07;;;9.80;99.90;;;;;;5049400;28;20703;-55
2023/08/06 00:23:41;;;;;;;16.48;4.75;;;9.80;99.90;;;;;;5048676;28;20055;-55
2023/08/06 00:26:09;;;;;;;13.93;4.13;;;9.80;99.90;;;;;;5047014;28;20237;-55
2023/08/06 00:28:37;;;;;;;8.00;3.65;;;9.80;99.90;;;;;;5050173;28;20037;-54
2023/08/06 00:31:04;;;;;;;13.27;4.25;;;9.70;99.90;;;;;;5048998;28;20173;-55
2023/08/06 00:33:33;;;;;;;8.50;3.80;;;9.70;99.90;;;;;;5044440;28;20085;-54
2023/08/06 00:36:00;;;;;;;11.40;4.43;;;9.70;99.90;;;;;;5044316;28;20037;-54
2023/08/06 00:38:29;;;;;;;9.65;4.05;;;9.70;99.90;;;;;;5043976;28;20392;-54
2023/08/06 00:40:57;;;;;;;10.75;4.15;;;9.70;99.90;;;;;;5047706;28;20389;-54
2023/08/06 00:43:24;;;;;;;9.57;3.72;;;9.70;99.90;;;;;;5034070;28;20036;-55
2023/08/06 00:45:52;;;;;;;13.82;4.40;;;9.70;99.90;;;;;;5044160;28;20571;-54
2023/08/06 00:48:21;;;;;;;13.32;3.83;;;9.60;99.90;;;;;;5043856;28;20044;-54
2023/08/06 00:50:48;;;;;;;14.50;4.82;;;9.60;99.90;;;;;;5047457;28;20424;-54
2023/08/06 00:53:16;;;;;;;12.55;5.05;;;9.60;99.90;;;;;;5048871;28;20480;-54
2023/08/06 00:55:45;;;;;;;10.65;4.15;;;9.60;99.90;;;;;;5047442;28;20052;-54
2023/08/06 00:58:15;;;;;;;11.63;5.10;;;9.60;99.90;;;;;;5047473;28;20369;-54
2023/08/06 01:00:43;;;;;;;14.25;5.22;;;;;;;;;;5059921;28;20056;-54
2023/08/06 01:03:12;;;;;;;10.35;5.20;;;9.60;99.90;;;;;;5038390;28;20045;-54
2023/08/06 01:05:40;;;;;;;11.85;5.72;;;9.60;99.90;;;;;;5043808;28;20048;-54
2023/08/06 01:08:31;;;;;;;12.63;6.25;;;9.60;99.90;;;;;;5045352;28;20052;-54
2023/08/06 01:10:58;;;;;;;13.60;5.80;;;9.60;99.90;;;;;;5037135;28;20056;-54
2023/08/06 01:13:43;;;;;;;14.57;5.53;;;9.60;99.90;;;;;;5046930;28;20502;-54
2023/08/06 01:16:12;;;;;;;10.38;5.07;;;9.60;99.90;;;;;;5046101;28;20045;-54
2023/08/06 01:18:41;;;;;;;13.97;5.63;;;9.60;99.90;;;;;;5046313;28;20041;-54
2023/08/06 01:21:09;;;;;;;13.02;5.30;;;9.60;99.90;;;;;;5048262;28;20052;-54
2023/08/06 01:23:37;;;;;;;13.90;5.50;;;9.60;99.90;;;;;;5047424;28;20073;-55
2023/08/06 01:26:14;;;;;;;18.60;5.55;;;9.60;99.90;;;;;;5041841;28;20044;-55
2023/08/06 01:29:04;;;;;;;13.50;5.20;;;9.50;99.90;;;;;;5041520;28;20056;-55
2023/08/06 01:31:35;;;;;;;15.43;5.33;;;9.50;99.90;;;;;;5039756;28;20041;-55
2023/08/06 01:34:07;;;;;;;13.25;5.40;;;9.50;99.90;;;;;;5048970;28;20401;-54
2023/08/06 01:36:35;;;;;;;9.68;5.72;;;9.50;99.90;;;;;;5051195;28;20041;-54
2023/08/06 01:39:04;;;;;;;10.98;5.93;;;9.50;99.90;;;;;;5041573;28;20051;-54
2023/08/06 01:41:32;;;;;;;17.10;5.63;;;9.50;99.90;;;;;;5048675;28;20037;-54
2023/08/06 01:44:00;;;;;;;14.65;5.93;;;9.60;99.90;;;;;;5033782;28;20052;-54
2023/08/06 01:46:28;;;;;;;13.95;5.00;;;9.60;99.90;;;;;;5047638;28;20045;-54
2023/08/06 01:48:55;;;;;;;16.52;5.95;;;9.60;99.90;;;;;;5045180;28;20091;-53
2023/08/06 01:51:23;;;;;;;13.13;6.18;;;9.60;99.90;;;;;;5049194;28;20036;-54
2023/08/06 01:53:50;;;;;;;16.10;5.57;;;9.60;99.90;;;;;;5052730;28;20048;-54
2023/08/06 01:56:18;;;;;;;16.58;5.18;;;9.60;99.90;;;;;;5049096;28;20479;-53
2023/08/06 01:58:46;;;;;;;12.57;5.57;;;9.60;99.90;;;;;;5048423;28;20048;-54
2023/08/06 02:01:14;;;;;;;14.70;6.15;;;9.60;99.90;;;;;;5044920;28;20480;-54
2023/08/06 02:03:41;;;;;;;13.80;5.88;;;9.50;99.90;;;;;;5049211;28;20468;-54
2023/08/06 02:06:10;;;;;;;12.93;5.47;;;9.60;99.90;;;;;;5048927;28;20396;-54
2023/08/06 02:08:39;;;;;;;12.27;5.00;;;9.60;99.90;;;;;;5050578;28;20056;-54
2023/08/06 02:11:07;;;;;;;13.70;5.28;;;9.50;99.90;;;;;;5044915;28;20064;-54
2023/08/06 02:13:35;;;;;;;15.02;6.32;;;9.60;99.90;;;;;;5049456;28;20037;-55
2023/08/06 02:16:03;;;;;;;12.70;5.82;;;9.70;99.90;;;;;;5031599;28;20045;-54
2023/08/06 02:18:31;;;;;;;15.52;5.78;;;;;;;;;;5050593;28;20052;-54
2023/08/06 02:21:00;;;;;;;12.98;5.78;;;9.80;99.90;;;;;;5048181;28;20056;-55
2023/08/06 02:23:29;;;;;;;13.77;6.05;;;9.90;99.90;;;;;;5052406;28;20606;-55
2023/08/06 02:25:58;;;;;;;12.25;5.30;;;10.00;99.90;;;;;;5050328;28;20037;-54
2023/08/06 02:28:26;;;;;;;19.80;6.13;;;10.00;99.90;;;;;;5050823;28;20048;-54
2023/08/06 02:30:53;;;;;;;14.70;5.72;;;10.10;99.90;;;;;;5049437;28;20392;-55
2023/08/06 02:33:21;;;;;;;14.75;4.63;;;10.10;99.90;;;;;;5044192;28;20607;-54
2023/08/06 02:35:49;;;;;;;17.48;5.10;;;10.10;99.90;;;;;;5048627;28;20053;-54
2023/08/06 02:38:16;;;;;;;9.65;4.25;;;10.20;99.90;;;;;;5050631;28;20052;-54
2023/08/06 02:40:45;;;;;;;14.02;4.47;;;10.20;99.90;;;;;;5050443;28;20037;-54
2023/08/06 02:43:13;;;;;;;12.50;5.10;;;10.30;99.90;;;;;;5040286;28;20091;-54
2023/08/06 02:45:41;;;;;;;13.55;5.43;;;10.30;99.90;;;;;;5048950;28;20481;-54
2023/08/06 02:48:10;;;;;;;14.00;5.40;;;10.40;99.90;;;;;;5049174;28;20045;-54
2023/08/06 02:50:39;;;;;;;14.32;5.90;;;10.40;99.90;;;;;;5044649;28;20045;-55
2023/08/06 02:53:08;;;;;;;14.40;5.63;;;10.50;99.90;;;;;;5047878;28;20048;-54
2023/08/06 02:55:36;;;;;;;14.02;5.13;;;10.50;99.90;;;;;;5049662;28;20433;-54
2023/08/06 02:58:09;;;;;;;16.30;5.45;;;10.60;99.90;;;;;;5049233;28;20045;-55
2023/08/06 03:00:42;;;;;;;15.48;6.93;;;10.60;99.90;;;;;;5048581;28;20044;-55
2023/08/06 03:03:11;;;;;;;13.80;5.38;;;10.60;99.90;;;;;;5047087;28;20492;-54
2023/08/06 03:05:54;;;;;;;11.23;4.82;;;10.70;99.90;;;;;;5044983;28;20048;-55
2023/08/06 03:08:33;;;;;;;14.25;5.28;;;10.70;99.90;;;;;;5049201;28;20515;-54
2023/08/06 03:11:01;;;;;;;16.25;5.57;;;10.70;99.90;;;;;;5049304;28;20052;-54
2023/08/06 03:13:28;;;;;;;15.15;5.30;;;10.70;99.90;;;;;;5044598;28;20045;-54
2023/08/06 03:15:59;;;;;;;11.85;5.07;;;10.70;99.90;;;;;;5051186;28;20435;-54
2023/08/06 03:18:29;;;;;;;16.73;5.53;;;10.70;99.90;;;;;;5049459;28;20036;-54
2023/08/06 03:20:59;;;;;;;12.93;5.47;;;10.70;99.90;;;;;;5052972;28;20048;-54
2023/08/06 03:23:30;;;;;;;13.68;5.20;;;10.70;99.90;;;;;;5048792;28;20045;-54
2023/08/06 03:26:02;;;;;;;11.35;4.82;;;10.70;99.90;;;;;;5035836;28;20044;-54
2023/08/06 03:28:32;;;;;;;14.18;5.07;;;10.70;99.90;;;;;;5052611;28;20033;-54
2023/08/06 03:31:02;;;;;;;10.88;5.07;;;10.70;99.90;;;;;;5053910;28;20044;-55
2023/08/06 03:33:36;;;;;;;17.98;5.63;;;10.60;99.90;;;;;;5049907;28;20029;-54
2023/08/06 03:36:08;;;;;;;10.70;4.72;;;10.70;99.90;;;;;;5052303;28;20052;-54
2023/08/06 03:38:36;;;;;;;12.13;5.57;;;10.70;99.90;;;;;;5052395;28;20048;-55
2023/08/06 03:41:07;;;;;;;14.68;5.55;;;10.60;99.90;;;;;;5053623;28;20476;-54
2023/08/06 03:43:34;;;;;;;10.93;5.10;;;10.60;99.90;;;;;;5034039;28;20045;-55
2023/08/06 03:46:05;;;;;;;14.30;5.35;;;10.60;99.90;;;;;;5049653;28;20051;-55
2023/08/06 03:48:34;;;;;;;15.07;5.18;;;10.60;99.90;;;;;;5052226;28;20044;-55
2023/08/06 03:51:02;;;;;;;12.18;4.82;;;10.60;99.90;;;;;;5048304;28;20048;-54
2023/08/06 03:53:29;;;;;;;14.30;5.18;;;10.70;99.90;;;;;;5054384;28;20041;-54
2023/08/06 03:55:59;;;;;;;12.98;5.35;;;10.70;99.90;;;;;;5057904;28;20041;-54
2023/08/06 03:58:29;;;;;;;11.07;4.45;;;10.70;99.90;;;;;;5035667;28;20047;-54
2023/08/06 04:00:59;;;;;;;9.55;4.43;;;10.70;99.90;;;;;;5050561;28;20045;-54
2023/08/06 04:03:31;;;;;;;10.85;4.20;;;10.70;99.90;;;;;;5035180;28;20515;-54
2023/08/06 04:06:01;;;;;;;12.25;4.40;;;10.70;99.90;;;;;;5049942;28;20068;-53
2023/08/06 04:08:29;;;;;;;10.10;3.78;;;;;;;;;;5051733;28;20052;-54
2023/08/06 04:10:56;;;;;;;8.98;3.78;;;10.70;99.90;;;;;;5045366;28;20503;-54
2023/08/06 04:13:24;;;;;;;11.05;3.83;;;10.70;99.90;;;;;;5051556;28;20508;-55
2023/08/06 04:15:52;;;;;;;5.38;2.95;;;10.70;99.90;;;;;;5047678;28;20052;-54
2023/08/06 04:18:19;;;;;;;11.60;3.13;;;10.70;99.90;;;;;;5052943;28;20051;-54
2023/08/06 04:20:49;;;;;;;11.45;3.33;;;10.70;99.90;;;;;;5050474;28;20037;-54
2023/08/06 04:23:17;;;;;;;8.35;3.25;;;10.70;99.90;;;;;;5053812;28;20469;-54
2023/08/06 04:25:44;;;;;;;10.73;3.53;;;10.70;99.90;;;;;;5051533;28;20041;-54
2023/08/06 04:28:13;;;;;;;6.53;3.40;;;10.70;99.90;;;;;;5047911;28;20045;-54
2023/08/06 04:30:41;;;;;;;11.45;3.28;;;10.70;99.90;;;;;;5050336;28;20049;-54
2023/08/06 04:33:09;;;;;;;10.45;3.17;;;10.70;99.90;;;;;;5051196;28;20045;-54
2023/08/06 04:35:37;;;;;;;10.68;3.35;;;10.70;99.90;;;;;;5051627;28;20051;-54
2023/08/06 04:38:05;;;;;;;8.10;3.97;;;10.70;99.90;;;;;;5047619;28;20064;-54
2023/08/06 04:40:35;;;;;;;10.93;3.65;;;10.70;99.90;;;;;;5048865;28;20044;-54
2023/08/06 04:43:03;;;;;;;10.05;4.28;;;10.60;99.90;;;;;;5048663;28;20040;-54
2023/08/06 04:45:33;;;;;;;9.23;4.07;;;10.60;99.90;;;;;;5047877;28;20040;-54
2023/08/06 04:48:01;;;;;;;10.38;4.05;;;10.60;99.90;;;;;;5039737;28;20049;-54
2023/08/06 04:50:29;;;;;;;11.13;3.75;;;10.60;99.90;;;;;;5040831;28;20060;-54
2023/08/06 04:52:57;;;;;;;10.57;3.58;;;10.60;99.90;;;;;;5046616;28;20041;-54
2023/08/06 04:55:24;;;;;;;13.20;3.88;;;10.60;99.90;;;;;;5046312;28;20493;-54
2023/08/06 04:57:52;;;;;;;8.05;3.88;;;10.60;99.90;;;;;;5036508;28;20041;-54
2023/08/06 05:00:20;;;;;;;13.07;4.10;;;10.60;99.90;;;;;;5043901;28;20052;-54
2023/08/06 05:02:47;;;;;;;9.20;3.72;;;10.60;99.90;;;;;;5035220;28;20041;-54
2023/08/06 05:05:15;;;;;;;11.90;3.92;;;10.70;99.90;;;;;;5043429;28;20418;-54
2023/08/06 05:07:43;;;;;;;11.50;3.65;;;10.80;99.90;;;;;;5045508;28;20045;-54
2023/08/06 05:10:11;;;;;;;13.40;3.65;;;10.80;99.90;;;;;;5044853;28;20048;-54
2023/08/06 05:12:38;;;;;;;8.52;3.80;;;10.80;99.90;;;;;;5046725;28;20037;-54
2023/08/06 05:15:06;;;;;;;10.90;4.05;;;10.90;99.90;;;;;;5043989;28;20069;-54
2023/08/06 05:17:34;;;;;;;8.48;4.22;;;11.00;99.90;;;;;;5047039;28;20045;-54
2023/08/06 05:20:02;;;;;;;8.88;4.50;;;11.00;99.90;;;;;;5044501;28;20396;-54
2023/08/06 05:22:30;;;;;;;14.82;7.03;;;11.10;99.90;;;;;;5042596;28;20052;-54
2023/08/06 05:24:58;;;;;;;12.45;7.47;;;11.10;99.90;;;;;;5048528;28;20049;-54
2023/08/06 05:27:25;;;;;;;17.20;8.07;;;11.20;99.90;;;;;;5043822;28;20033;-55
2023/08/06 05:29:57;;;;;;;14.13;8.32;;;11.30;99.90;;;;;;5037585;28;20053;-55
2023/08/06 05:32:25;;;;;;;16.85;8.30;;;11.20;99.90;;;;;;5040647;28;20032;-55
2023/08/06 05:34:53;;;;;;;12.20;7.30;;;11.40;99.90;;;;;;5037683;28;20053;-55
2023/08/06 05:37:21;;;;;;;12.32;7.90;;;11.40;99.90;;;;;;5041144;28;20033;-54
2023/08/06 05:39:49;;;;;;;14.15;8.43;;;11.40;99.90;;;;;;5045541;28;20041;-54
2023/08/06 05:42:16;;;;;;;14.00;8.27;;;11.50;99.90;;;;;;5040720;28;20045;-55
2023/08/06 05:44:44;;;;;;;14.25;7.30;;;11.50;99.90;;;;;;5047707;28;20048;-54
2023/08/06 05:47:12;;;;;;;13.15;6.05;;;11.50;99.90;;;;;;5043499;28;20048;-55
2023/08/06 05:49:40;;;;;;;12.15;6.20;;;11.50;99.90;;;;;;5044247;28;20542;-54
2023/08/06 05:52:08;;;;;;;8.57;6.07;;;11.50;99.90;;;;;;5039220;28;20041;-54
2023/08/06 05:54:35;;;;;;;10.20;5.22;;;11.50;99.90;;;;;;5043839;28;20052;-55
2023/08/06 05:57:04;;;;;;;9.90;5.45;;;11.60;99.90;;;;;;5046695;28;20068;-55
2023/08/06 05:59:32;;;;;;;9.25;4.70;;;11.60;99.90;;;;;;5046629;28;20045;-54
2023/08/06 06:02:00;;;;;;;9.27;4.50;;;11.70;99.90;;;;;;5040508;28;20053;-56
2023/08/06 06:04:28;;;;;;;8.35;3.30;;;11.70;99.90;;;;;;5041399;28;20052;-55
2023/08/06 06:06:56;;;;;;;10.93;3.88;;;11.80;99.90;;;;;;5038681;28;20048;-54
2023/08/06 06:09:24;;;;;;;5.88;3.25;;;11.80;99.90;;;;;;5041790;28;20041;-55
2023/08/06 06:11:51;;;;;;;7.03;2.58;;;11.80;99.90;;;;;;5043309;28;20048;-54
2023/08/06 06:14:19;;;;;;;6.45;2.28;;;11.80;99.90;;;;;;5044834;28;20041;-55
2023/08/06 06:16:47;;;;;;;6.93;2.22;;;11.80;99.90;;;;;;5046463;28;20396;-54
2023/08/06 06:19:15;;;;;;;4.90;2.80;;;11.80;99.90;;;;;;5045515;28;20040;-54
2023/08/06 06:21:43;;;;;;;4.25;2.53;;;11.80;99.90;;;;;;5046119;28;20053;-54
2023/08/06 06:24:10;;;;;;;5.78;2.80;;;11.80;99.90;;;;;;5042939;28;20373;-54
2023/08/06 06:26:39;;;;;;;7.60;2.97;;;11.80;99.90;;;;;;5046028;28;20048;-54
2023/08/06 06:29:06;;;;;;;6.95;3.38;;;11.90;99.90;;;;;;5025807;28;20066;-54
2023/08/06 06:31:35;;;;;;;5.25;3.22;;;11.90;99.90;;;;;;5044855;28;20041;-54
2023/08/06 06:34:02;;;;;;;5.43;3.55;;;11.90;99.90;;;;;;5043129;28;20044;-54
2023/08/06 06:36:30;;;;;;;7.18;3.10;;;11.90;99.90;;;;;;5047376;28;20049;-55
2023/08/06 06:38:58;;;;;;;6.85;2.80;;;11.90;99.90;;;;;;5047215;28;20048;-55
2023/08/06 06:41:26;;;;;;;12.07;3.67;;;12.00;99.90;;;;;;5045280;28;20045;-55
2023/08/06 06:43:57;;;;;;;7.63;3.05;;;12.00;99.90;;;;;;5043704;28;20033;-54
2023/08/06 06:46:27;;;;;;;4.65;2.85;;;12.10;99.90;;;;;;5042573;28;20045;-55
2023/08/06 06:48:55;;;;;;;5.10;2.80;;;12.10;99.90;;;;;;5042277;28;20053;-54
2023/08/06 06:51:25;;;;;;;6.80;2.22;;;12.30;99.90;;;;;;5049888;28;20049;-55
2023/08/06 06:53:53;;;;;;;7.88;2.60;;;12.20;99.90;;;;;;5055035;28;20479;-55
2023/08/06 06:56:21;;;;;;;4.43;2.45;;;12.30;99.90;;;;;;5049908;28;20045;-55
2023/08/06 06:58:49;;;;;;;4.38;2.25;;;12.40;99.90;;;;;;5039996;28;20037;-55
2023/08/06 07:01:16;;;;;;;4.10;2.60;;;12.50;99.90;;;;;;5045550;28;20053;-54
2023/08/06 07:03:44;;;;;;;6.60;3.00;;;12.50;99.90;;;;;;5043415;28;20396;-54
2023/08/06 07:06:12;;;;;;;4.45;2.35;;;12.50;99.90;;;;;;5047403;28;20036;-55
2023/08/06 07:08:40;;;;;;;6.68;2.60;;;12.60;99.90;;;;;;5049409;28;20505;-55
2023/08/06 07:11:08;;;;;;;3.58;2.65;;;12.70;99.90;;;;;;5046885;28;20041;-54
2023/08/06 07:13:36;;;;;;;4.68;2.30;;;12.80;99.90;;;;;;5050292;28;20044;-55
2023/08/06 07:16:03;;;;;;;7.57;2.33;;;12.80;99.90;;;;;;5048410;28;20068;-54
2023/08/06 07:18:31;;;;;;;5.07;2.08;;;12.90;99.90;;;;;;5030552;28;20045;-54
2023/08/06 07:20:59;;;;;;;4.22;1.90;;;12.90;99.90;;;;;;5046091;28;20049;-55
2023/08/06 07:23:27;;;;;;;5.43;2.53;;;13.00;99.90;;;;;;5048910;28;20036;-56
2023/08/06 07:25:54;;;;;;;4.13;2.63;;;13.10;99.90;;;;;;5044029;28;20052;-55
2023/08/06 07:28:25;;;;;;;3.22;2.10;;;13.30;99.90;;;;;;5041329;28;20080;-54
2023/08/06 07:30:55;;;;;;;5.40;2.40;;;13.50;99.90;;;;;;5044250;28;20045;-54
2023/08/06 07:33:23;;;;;;;5.57;2.33;;;13.50;99.90;;;;;;5042361;28;20044;-55
2023/08/06 07:35:53;;;;;;;5.32;1.90;;;13.60;99.90;;;;;;5049432;28;20048;-54
2023/08/06 07:38:21;;;;;;;4.95;2.90;;;13.80;99.90;;;;;;5050204;28;20543;-56
2023/08/06 07:40:49;;;;;;;2.72;1.90;;;13.90;99.90;;;;;;5040191;28;20052;-56
2023/08/06 07:43:19;;;;;;;2.30;1.60;;;14.10;99.90;;;;;;5046795;28;20064;-56
2023/08/06 07:45:47;;;;;;;4.82;2.30;;;14.20;99.90;;;;;;5045502;28;20056;-56
2023/08/06 07:48:15;;;;;;;4.53;2.22;;;14.40;99.90;;;;;;5049405;28;20045;-56
2023/08/06 07:50:49;;;;;;;6.40;2.13;;;14.40;99.90;;;;;;5046126;28;20050;-56
2023/08/06 07:53:17;;;;;;;4.28;2.17;;;14.50;99.90;;;;;;5048655;28;20048;-56
2023/08/06 07:55:49;;;;;;;5.50;2.00;;;14.70;99.90;;;;;;5040277;28;20052;-56
2023/08/06 07:58:17;;;;;;;4.30;1.73;;;14.70;99.90;;;;;;5047088;28;20500;-56
2023/08/06 08:00:45;;;;;;;6.00;1.73;;;14.80;99.90;;;;;;5047795;28;20044;-56
2023/08/06 08:03:15;;;;;;;2.17;1.50;;;14.70;99.90;;;;;;5051224;28;20671;-55
2023/08/06 08:05:43;;;;;;;4.18;1.95;;;14.70;99.90;;;;;;5049366;28;20041;-56
2023/08/06 08:08:11;;;;;;;6.53;2.20;;;14.60;99.90;;;;;;5041839;28;20045;-55
2023/08/06 08:10:39;;;;;;;5.85;3.20;;;14.50;99.90;;;;;;5045563;28;20041;-56
2023/08/06 08:13:07;;;;;;;6.20;2.33;;;14.40;99.90;;;;;;5045451;28;20664;-56
2023/08/06 08:15:35;;;;;;;7.10;2.55;;;14.40;99.90;;;;;;5047919;28;20045;-55
2023/08/06 08:18:02;;;;;;;6.18;2.30;;;14.30;99.90;;;;;;5047228;28;20045;-55
2023/08/06 08:20:35;;;;;;;5.75;2.33;;;14.20;99.90;;;;;;5044690;28;20045;-56
2023/08/06 08:23:03;;;;;;;5.18;2.88;;;14.20;99.90;;;;;;5049774;28;20037;-56
2023/08/06 08:25:31;;;;;;;6.85;3.10;;;14.30;99.90;;;;;;5052259;28;20404;-56
2023/08/06 08:27:59;;;;;;;4.53;2.47;;;14.30;99.90;;;;;;5048841;28;20415;-56
2023/08/06 08:30:27;;;;;;;7.88;2.30;;;14.40;99.90;;;;;;5038880;28;20396;-55
2023/08/06 08:32:55;;;;;;;7.15;2.88;;;14.40;99.90;;;;;;5044281;28;20044;-56
2023/08/06 08:35:23;;;;;;;6.38;2.10;;;;;;;;;;5039489;28;20431;-56
2023/08/06 08:37:51;;;;;;;5.75;2.13;;;14.60;99.90;;;;;;5049218;28;20415;-56
2023/08/06 08:40:23;;;;;;;4.10;1.90;;;14.60;99.90;;;;;;5044199;28;20049;-56
2023/08/06 08:42:51;;;;;;;4.65;1.60;;;14.70;99.90;;;;;;5048262;28;20441;-56
2023/08/06 08:45:22;;;;;;;3.80;1.40;;;14.80;99.90;;;;;;5046373;28;20052;-56
2023/08/06 08:47:50;;;;;;;5.63;1.40;;;14.90;99.90;;;;;;5049015;28;20037;-55
2023/08/06 08:50:19;;;;;;;3.00;1.40;;;15.00;99.90;;;;;;5046705;28;20428;-55
2023/08/06 08:52:48;;;;;;;2.13;1.20;;;15.00;99.90;;;;;;5043609;28;20040;-56
2023/08/06 08:55:16;;;;;;;4.13;1.37;;;15.10;99.90;;;;;;5047710;28;20309;-56
2023/08/06 08:57:44;;;;;;;6.65;1.35;;;15.30;99.90;;;;;;5048454;28;20518;-56
2023/08/06 09:00:14;;;;;;;4.97;1.55;;;15.30;99.90;;;;;;5044159;28;20051;-55
2023/08/06 09:02:42;;;;;;;3.58;1.38;;;15.50;99.90;;;;;;5048542;28;20072;-56
2023/08/06 09:05:11;;;;;;;5.03;1.40;;;15.60;99.90;;;;;;5045402;28;20045;-56
2023/08/06 09:07:45;;;;;;;1.48;0.82;;;15.80;99.90;;;;;;5047180;28;20041;-57
2023/08/06 09:10:17;;;;;;;4.38;1.40;;;15.90;99.90;;;;;;5047240;28;20049;-55
2023/08/06 09:12:46;;;;;;;2.75;1.20;;;15.90;99.90;;;;;;5046158;28;20045;-55
2023/08/06 09:15:14;;;;;;;3.40;1.30;;;16.00;99.90;;;;;;5044715;28;20392;-56
2023/08/06 09:17:42;;;;;;;3.53;1.55;;;16.10;99.90;;;;;;5048138;28;20051;-56
2023/08/06 09:20:14;;;;;;;2.05;0.93;;;16.10;99.90;;;;;;5044175;28;20048;-55
2023/08/06 09:22:42;;;;;;;4.93;1.15;;;16.10;99.90;;;;;;5047943;28;20428;-55
2023/08/06 09:25:10;;;;;;;1.13;0.95;;;16.00;99.90;;;;;;5041448;28;20057;-55
2023/08/06 09:27:38;;;;;;;4.07;1.30;;;15.80;99.90;;;;;;5042813;28;20045;-54
2023/08/06 09:30:07;;;;;;;3.08;1.20;;;15.50;99.90;;;;;;5047092;28;20065;-55
2023/08/06 09:32:47;;;;;;;4.20;1.65;;;15.50;99.90;;;;;;5044309;28;20079;-54
2023/08/06 09:35:16;;;;;;;3.38;1.10;;;15.40;99.90;;;;;;5040119;28;20484;-56
2023/08/06 09:37:45;;;;;;;4.47;1.73;;;15.10;99.90;;;;;;5044392;28;20037;-55
2023/08/06 09:40:32;;;;;;;2.92;1.67;;;15.10;99.90;;;;;;5048117;28;20045;-55
2023/08/06 09:43:00;;;;;;;3.05;1.50;;;15.00;99.90;;;;;;5043726;28;20056;-55
2023/08/06 09:45:36;;;;;;;4.57;1.75;;;15.00;99.90;;;;;;5044177;28;20052;-56
2023/08/06 09:48:09;;;;;;;4.82;1.52;;;15.00;99.90;;;;;;5044394;28;20049;-55
2023/08/06 09:50:38;;;;;;;4.82;1.60;;;15.00;99.90;;;;;;5043838;28;20036;-55
2023/08/06 09:53:08;;;;;;;5.33;1.87;;;15.10;99.90;;;;;;5049680;28;20408;-56
2023/08/06 09:55:36;;;;;;;4.60;1.90;;;15.10;99.90;;;;;;5046681;28;20072;-55
2023/08/06 09:58:05;;;;;;;3.58;1.27;;;15.10;99.90;;;;;;5047465;28;20045;-55
2023/08/06 10:00:34;;;;;;;13.70;1.90;;;15.10;99.90;;;;;;5048019;28;20048;-55
2023/08/06 10:03:07;;;;;;;6.75;2.05;;;15.10;99.90;;;;;;5043156;28;20048;-56
2023/08/06 10:05:36;;;;;;;4.80;1.30;;;15.10;99.90;;;;;;5040323;28;20400;-56
2023/08/06 10:08:06;;;;;;;3.85;1.60;;;15.30;99.90;;;;;;5046633;28;20294;-55
2023/08/06 10:10:34;;;;;;;;;;;15.30;99.90;;;;;;5047070;28;20191;-55
2023/08/06 10:13:04;;;;;;;4.05;1.40;;;15.50;99.90;;;;;;5047982;28;19932;-54
2023/08/06 10:15:32;;;;;;;3.47;1.45;;;15.50;99.90;;;;;;5039440;28;20041;-55
2023/08/06 10:18:01;;;;;;;3.78;1.40;;;15.60;99.90;;;;;;5047259;28;20051;-56
2023/08/06 10:20:36;;;;;;;3.17;1.25;;;15.70;99.90;;;;;;5042785;28;20033;-55
2023/08/06 10:23:07;;;;;;;8.38;1.65;;;15.80;99.90;;;;;;5046940;28;20044;-55
2023/08/06 10:25:39;;;;;;;4.75;1.50;;;15.90;99.90;;;;;;5047515;28;20391;-55
2023/08/06 10:28:13;;;;;;;3.72;1.67;;;16.00;99.90;;;;;;5050530;28;20056;-55
2023/08/06 10:30:48;;;;;;;4.55;1.52;;;16.00;99.90;;;;;;5048369;28;20041;-55
2023/08/06 10:33:19;;;;;;;3.17;1.20;;;16.00;99.90;;;;;;5047633;28;20219;-56
2023/08/06 10:35:49;;;;;;;2.47;1.25;;;15.90;99.90;;;;;;5040717;28;20037;-55
2023/08/06 10:38:21;;;;;;;2.88;1.13;;;15.80;99.90;;;;;;5053182;28;20203;-55
2023/08/06 10:41:10;;;;;;;1.50;0.95;;;15.80;99.90;;;;;;5051370;28;20044;-55
2023/08/06 10:43:39;;;;;;;;;;;15.70;99.90;;;;;;5050276;28;20484;-55
2023/08/06 10:46:20;;;;;;;5.38;1.10;;;15.60;99.90;;;;;;5043812;28;19921;-55
2023/08/06 10:48:48;;;;;;;2.63;1.00;;;15.40;99.90;;;;;;5044976;28;20523;-55
2023/08/06 10:51:16;;;;;;;1.63;0.80;;;15.40;99.90;;;;;;5049599;28;20048;-55
2023/08/06 10:53:48;;;;;;;2.58;1.27;;;15.40;99.90;;;;;;5049092;28;20045;-55
2023/08/06 10:56:17;;;;;;;3.63;1.25;;;15.40;99.90;;;;;;5045419;28;20041;-55
2023/08/06 10:58:46;;;;;;;4.13;1.30;;;15.30;99.90;;;;;;5047532;28;20408;-55
2023/08/06 11:01:15;;;;;;;5.85;1.80;;;15.40;99.90;;;;;;5047964;28;20293;-56
2023/08/06 11:03:44;;;;;;;5.70;1.30;;;15.50;99.90;;;;;;5049313;28;20045;-56
2023/08/06 11:06:20;;;;;;;5.72;1.52;;;15.50;99.90;;;;;;5047803;28;20051;-55
2023/08/06 11:08:51;;;;;;;3.35;1.73;;;15.70;99.90;;;;;;5050727;28;20041;-55
2023/08/06 11:11:20;;;;;;;5.05;1.55;;;15.80;99.90;;;;;;5044860;28;20504;-58
2023/08/06 11:13:49;;;;;;;4.65;1.42;;;16.00;99.90;;;;;;5050255;28;20518;-55
2023/08/06 11:16:19;;;;;;;3.72;1.33;;;16.20;99.90;;;;;;5049493;28;20404;-56
2023/08/06 11:18:47;;;;;;;;;;;16.40;99.90;;;;;;5047582;28;20033;-55
2023/08/06 11:21:19;;;;;;;1.60;1.20;;;16.50;99.90;;;;;;5045379;28;20363;-56
2023/08/06 11:23:47;;;;;;;3.15;1.30;;;16.50;99.90;;;;;;5048814;28;20041;-55
2023/08/06 11:26:23;;;;;;;1.70;1.10;;;16.40;99.90;;;;;;5050597;28;20045;-56
2023/08/06 11:28:51;;;;;;;4.60;1.38;;;16.30;99.90;;;;;;5049226;28;20044;-55
2023/08/06 11:31:23;;;;;;;2.55;0.98;;;16.20;99.90;;;;;;5047769;28;20044;-55
2023/08/06 11:33:52;;;;;;;4.53;1.38;;;16.20;99.90;;;;;;5047316;28;20392;-56
2023/08/06 11:36:33;;;;;;;6.97;1.40;;;16.00;99.90;;;;;;5041743;28;20040;-54
2023/08/06 11:39:02;;;;;;;4.15;1.30;;;16.00;99.90;;;;;;5047210;28;20296;-55
2023/08/06 11:41:31;;;;;;;2.70;1.10;;;16.00;99.90;;;;;;5046363;28;20052;-55
2023/08/06 11:43:59;;;;;;;1.40;1.00;;;16.10;99.90;;;;;;5045432;28;20481;-56
2023/08/06 11:46:27;;;;;;;2.13;0.95;;;16.10;99.90;;;;;;5045930;28;20037;-55
2023/08/06 11:48:57;;;;;;;2.58;0.95;;;16.20;99.90;;;;;;5049786;28;20480;-56
2023/08/06 11:51:25;;;;;;;1.98;0.80;;;16.30;99.90;;;;;;5045671;28;20543;-57
2023/08/06 11:53:59;;;;;;;4.40;1.10;;;16.40;99.90;;;;;;5050146;28;20048;-56
2023/08/06 11:56:28;;;;;;;2.20;0.98;;;16.40;99.90;;;;;;5048216;28;20044;-56
2023/08/06 11:58:55;;;;;;;2.08;1.15;;;16.40;99.90;;;;;;5048770;28;20048;-56
2023/08/06 12:01:24;;;;;;;3.40;1.00;;;16.40;99.90;;;;;;5047422;28;20041;-57
2023/08/06 12:03:52;;;;;;;4.70;1.30;;;16.40;99.90;;;;;;5047533;28;20045;-57
2023/08/06 12:06:20;;;;;;;1.67;0.93;;;16.30;99.90;;;;;;5046246;28;20052;-55
2023/08/06 12:08:48;;;;;;;6.25;0.80;;;16.30;99.90;;;;;;5048403;28;20048;-55
2023/08/06 12:11:15;;;;;;;2.80;1.20;;;16.20;99.90;;;;;;5049880;28;20049;-55
2023/08/06 12:13:43;;;;;;;2.95;0.82;;;16.20;99.90;;;;;;5047187;28;20041;-56
2023/08/06 12:16:14;;;;;;;1.23;0.90;;;16.20;99.90;;;;;;5040459;28;20421;-56
2023/08/06 12:18:41;;;;;;;2.75;1.00;;;16.20;99.90;;;;;;5049299;28;20068;-56
2023/08/06 12:21:09;;;;;;;2.35;0.73;;;16.20;99.90;;;;;;5047922;28;20529;-56
2023/08/06 12:23:37;;;;;;;2.58;1.02;;;16.20;99.90;;;;;;5049757;28;20045;-56
2023/08/06 12:26:05;;;;;;;3.35;1.02;;;16.30;99.90;;;;;;5044993;28;20507;-57
2023/08/06 12:28:33;;;;;;;1.98;1.05;;;16.30;99.90;;;;;;5049271;28;20049;-56
2023/08/06 12:31:00;;;;;;;3.78;1.40;;;16.40;99.90;;;;;;5049314;28;20575;-57
2023/08/06 12:33:28;;;;;;;6.32;1.50;;;16.50;99.90;;;;;;5052524;28;20052;-57
2023/08/06 12:35:57;;;;;;;5.30;2.08;;;16.50;99.90;;;;;;5047675;28;20045;-56
2023/08/06 12:38:25;;;;;;;7.35;1.38;;;16.50;99.90;;;;;;5047762;28;20057;-57
2023/08/06 12:40:54;;;;;;;5.65;1.70;;;16.40;99.90;;;;;;5048850;28;20044;-57
2023/08/06 12:43:21;;;;;;;2.85;1.17;;;16.30;99.90;;;;;;5048843;28;20408;-56
2023/08/06 12:45:49;;;;;;;2.83;1.27;;;16.00;99.90;;;;;;5045420;28;20045;-59
2023/08/06 12:48:17;;;;;;;2.63;0.85;;;15.80;99.90;;;;;;5039672;28;20040;-56
2023/08/06 12:50:45;;;;;;;2.10;1.23;;;15.60;99.90;;;;;;5047306;28;20029;-56
2023/08/06 12:53:12;;;;;;;2.58;0.90;;;15.60;99.90;;;;;;5050677;28;20057;-56
2023/08/06 12:55:41;;;;;;;1.63;1.08;;;15.50;99.90;;;;;;5046413;28;20044;-56
2023/08/06 12:58:09;;;;;;;5.70;1.00;;;15.50;99.90;;;;;;5046544;28;20037;-57